createdAt,value
2023-08-11T00:00:09.965Z,19.50
2023-08-11T00:02:41.383Z,19.50
2023-08-11T00:05:10.159Z,19.40
2023-08-11T00:07:38.525Z,19.40
2023-08-11T00:10:09.470Z,19.40
2023-08-11T00:12:37.683Z,19.30
2023-08-11T00:15:08.018Z,19.30
2023-08-11T00:17:36.339Z,19.30
2023-08-11T00:20:07.272Z,19.30
2023-08-11T00:22:35.427Z,19.20
2023-08-11T00:25:03.816Z,19.20
2023-08-11T00:27:33.459Z,19.20
2023-08-11T00:30:02.289Z,19.20
2023-08-11T00:32:31.085Z,19.20
2023-08-11T00:34:59.454Z,19.20
2023-08-11T00:37:28.451Z,19.10
2023-08-11T00:39:56.610Z,19.10
2023-08-11T00:42:25.824Z,19.10
2023-08-11T00:44:59.158Z,19.10
2023-08-11T00:47:28.608Z,19.00
2023-08-11T00:49:57.125Z,19.00
2023-08-11T00:52:25.447Z,19.00
2023-08-11T00:54:55.623Z,19.00
2023-08-11T00:57:24.019Z,19.00
2023-08-11T00:59:52.542Z,19.00
2023-08-11T01:02:23.096Z,19.00
2023-08-11T01:04:51.524Z,19.00
2023-08-11T01:07:25.659Z,19.00
2023-08-11T01:10:01.054Z,18.90
2023-08-11T01:12:36.829Z,18.90
2023-08-11T01:15:13.009Z,18.90
2023-08-11T01:17:45.129Z,18.80
2023-08-11T01:20:17.216Z,18.80
2023-08-11T01:22:48.011Z,18.80
2023-08-11T01:25:18.266Z,18.80
2023-08-11T01:27:48.693Z,18.80
2023-08-11T01:30:18.977Z,18.80
2023-08-11T01:32:47.403Z,18.70
2023-08-11T01:35:25.481Z,18.70
2023-08-11T01:38:03.833Z,18.70
2023-08-11T01:40:33.619Z,18.70
2023-08-11T01:43:05.194Z,18.70
2023-08-11T01:45:34.415Z,18.70
2023-08-11T01:48:03.921Z,18.60
2023-08-11T01:50:33.629Z,18.60
2023-08-11T01:53:01.885Z,18.60
2023-08-11T01:55:30.522Z,18.50
2023-08-11T01:58:02.571Z,18.50
2023-08-11T02:00:30.752Z,18.50
2023-08-11T02:03:00.225Z,18.40
2023-08-11T02:05:30.520Z,18.40
2023-08-11T02:08:01.097Z,18.40
2023-08-11T02:10:31.340Z,18.40
2023-08-11T02:13:02.067Z,18.30
2023-08-11T02:15:30.588Z,18.30
2023-08-11T02:17:59.033Z,18.30
2023-08-11T02:20:27.494Z,18.30
2023-08-11T02:22:56.168Z,18.30
2023-08-11T02:25:27.182Z,18.30
2023-08-11T02:27:55.868Z,18.20
2023-08-11T02:30:25.599Z,18.20
2023-08-11T02:32:54.748Z,18.20
2023-08-11T02:35:23.660Z,18.20
2023-08-11T02:37:52.219Z,18.20
2023-08-11T02:40:22.075Z,18.20
2023-08-11T02:42:57.979Z,18.20
2023-08-11T02:45:28.188Z,18.20
2023-08-11T02:47:57.628Z,18.20
2023-08-11T02:50:26.055Z,18.10
2023-08-11T02:52:55.207Z,18.10
2023-08-11T02:55:23.977Z,18.10
2023-08-11T02:57:52.326Z,18.10
2023-08-11T03:00:20.970Z,18.10
2023-08-11T03:02:50.808Z,18.10
2023-08-11T03:05:19.940Z,18.10
2023-08-11T03:07:52.568Z,18.00
2023-08-11T03:10:20.830Z,17.90
2023-08-11T03:12:49.078Z,17.90
2023-08-11T03:15:17.901Z,17.90
2023-08-11T03:17:46.571Z,17.80
2023-08-11T03:20:17.315Z,17.80
2023-08-11T03:22:48.176Z,17.80
2023-08-11T03:25:21.365Z,17.80
2023-08-11T03:27:51.605Z,17.80
2023-08-11T03:30:29.263Z,17.80
2023-08-11T03:32:58.966Z,17.70
2023-08-11T03:35:49.575Z,17.70
2023-08-11T03:38:17.858Z,17.60
2023-08-11T03:40:46.158Z,17.70
2023-08-11T03:43:14.697Z,17.70
2023-08-11T03:45:43.191Z,17.70
2023-08-11T03:48:14.849Z,17.60
2023-08-11T03:50:43.263Z,17.60
2023-08-11T03:53:13.310Z,17.60
2023-08-11T03:55:44.215Z,17.60
2023-08-11T03:58:16.103Z,17.60
2023-08-11T04:00:46.148Z,17.60
2023-08-11T04:03:17.332Z,17.60
2023-08-11T04:05:45.648Z,17.50
2023-08-11T04:08:15.433Z,17.50
2023-08-11T04:10:43.673Z,17.50
2023-08-11T04:13:11.972Z,17.50
2023-08-11T04:15:40.620Z,17.50
2023-08-11T04:18:09.446Z,17.50
2023-08-11T04:20:38.232Z,17.50
2023-08-11T04:23:07.010Z,17.50
2023-08-11T04:25:39.536Z,17.50
2023-08-11T04:28:08.319Z,17.50
2023-08-11T04:30:36.703Z,17.50
2023-08-11T04:33:06.465Z,17.50
2023-08-11T04:35:36.978Z,17.50
2023-08-11T04:38:06.943Z,17.50
2023-08-11T04:40:38.527Z,17.40
2023-08-11T04:43:07.076Z,17.40
2023-08-11T04:45:41.187Z,17.30
2023-08-11T04:48:10.619Z,17.30
2023-08-11T04:50:41.950Z,17.30
2023-08-11T04:53:10.865Z,17.20
2023-08-11T04:55:43.378Z,17.20
2023-08-11T04:58:12.634Z,17.20
2023-08-11T05:00:41.053Z,17.10
2023-08-11T05:03:09.839Z,17.10
2023-08-11T05:05:38.008Z,17.10
2023-08-11T05:08:07.060Z,17.10
2023-08-11T05:10:35.384Z,17.10
2023-08-11T05:13:05.586Z,17.10
2023-08-11T05:15:34.754Z,17.10
2023-08-11T05:18:03.779Z,17.10
2023-08-11T05:20:32.202Z,17.20
2023-08-11T05:23:00.496Z,17.20
2023-08-11T05:25:28.874Z,17.20
2023-08-11T05:27:57.221Z,17.30
2023-08-11T05:30:29.252Z,17.30
2023-08-11T05:32:58.281Z,17.30
2023-08-11T05:35:27.766Z,17.30
2023-08-11T05:37:55.985Z,17.40
2023-08-11T05:40:24.678Z,17.40
2023-08-11T05:42:53.005Z,17.50
2023-08-11T05:45:21.261Z,17.50
2023-08-11T05:47:51.033Z,17.50
2023-08-11T05:50:19.692Z,17.50
2023-08-11T05:52:48.140Z,17.50
2023-08-11T05:55:16.608Z,17.50
2023-08-11T05:57:44.810Z,17.60
2023-08-11T06:00:15.178Z,17.60
2023-08-11T06:02:44.681Z,17.60
2023-08-11T06:05:14.530Z,17.70
2023-08-11T06:07:52.367Z,17.70
2023-08-11T06:10:28.864Z,17.70
2023-08-11T06:12:57.492Z,17.70
2023-08-11T06:15:25.741Z,17.70
2023-08-11T06:17:55.104Z,17.70
2023-08-11T06:20:38.655Z,17.80
2023-08-11T06:23:09.160Z,17.70
2023-08-11T06:25:38.129Z,17.70
2023-08-11T06:28:08.495Z,17.80
2023-08-11T06:30:36.839Z,17.90
2023-08-11T06:33:05.723Z,17.90
2023-08-11T06:35:36.002Z,18.00
2023-08-11T06:38:04.406Z,18.00
2023-08-11T06:40:32.884Z,18.00
2023-08-11T06:43:01.103Z,18.10
2023-08-11T06:45:29.605Z,18.20
2023-08-11T06:47:58.197Z,18.20
2023-08-11T06:50:26.782Z,18.30
2023-08-11T06:53:00.354Z,18.30
2023-08-11T06:55:28.937Z,18.40
2023-08-11T06:57:57.253Z,18.40
2023-08-11T07:00:25.816Z,18.50
2023-08-11T07:02:54.719Z,18.50
2023-08-11T07:05:23.114Z,18.60
2023-08-11T07:07:51.283Z,18.60
2023-08-11T07:10:20.917Z,18.60
2023-08-11T07:12:49.513Z,18.70
2023-08-11T07:15:17.987Z,18.90
2023-08-11T07:17:46.215Z,19.10
2023-08-11T07:20:14.663Z,19.10
2023-08-11T07:22:42.963Z,19.30
2023-08-11T07:25:11.196Z,19.30
2023-08-11T07:27:40.872Z,19.40
2023-08-11T07:30:10.982Z,19.40
2023-08-11T07:32:39.294Z,19.60
2023-08-11T07:35:08.774Z,19.70
2023-08-11T07:37:37.090Z,19.80
2023-08-11T07:40:07.759Z,19.90
2023-08-11T07:42:36.217Z,19.90
2023-08-11T07:45:06.789Z,19.80
2023-08-11T07:47:34.993Z,19.80
2023-08-11T07:50:03.590Z,19.80
2023-08-11T07:52:31.907Z,19.70
2023-08-11T07:55:00.401Z,19.70
2023-08-11T07:57:29.015Z,19.90
2023-08-11T07:59:58.471Z,20.00
2023-08-11T08:02:28.268Z,20.20
2023-08-11T08:05:11.826Z,20.40
2023-08-11T08:07:41.466Z,20.50
2023-08-11T08:10:10.562Z,20.60
2023-08-11T08:12:40.226Z,20.70
2023-08-11T08:15:10.295Z,20.70
2023-08-11T08:17:40.357Z,20.70
2023-08-11T08:20:10.609Z,20.70
2023-08-11T08:22:39.336Z,20.70
2023-08-11T08:25:08.425Z,20.70
2023-08-11T08:27:37.105Z,20.70
2023-08-11T08:30:06.563Z,20.80
2023-08-11T08:32:35.346Z,21.00
2023-08-11T08:35:07.186Z,21.40
2023-08-11T08:37:35.814Z,21.40
2023-08-11T08:40:05.533Z,21.60
2023-08-11T08:42:33.951Z,21.60
2023-08-11T08:45:02.784Z,21.70
2023-08-11T08:47:33.254Z,21.60
2023-08-11T08:50:04.806Z,21.70
2023-08-11T08:52:33.454Z,21.60
2023-08-11T08:55:02.693Z,21.60
2023-08-11T08:57:31.224Z,21.70
2023-08-11T08:59:59.716Z,21.90
2023-08-11T09:02:30.429Z,21.90
2023-08-11T09:04:58.841Z,21.80
2023-08-11T09:07:28.876Z,21.90
2023-08-11T09:09:57.114Z,22.00
2023-08-11T09:12:28.483Z,22.00
2023-08-11T09:14:57.225Z,22.80
2023-08-11T09:17:26.942Z,23.30
2023-08-11T09:19:55.455Z,23.70
2023-08-11T09:22:26.515Z,23.50
2023-08-11T09:24:56.924Z,23.60
2023-08-11T09:27:25.486Z,23.40
2023-08-11T09:29:54.310Z,23.30
2023-08-11T09:32:26.852Z,23.50
2023-08-11T09:34:55.956Z,23.40
2023-08-11T09:37:25.574Z,23.80
2023-08-11T09:40:01.305Z,23.90
2023-08-11T09:42:29.860Z,23.80
2023-08-11T09:44:58.277Z,24.00
2023-08-11T09:47:26.514Z,24.10
2023-08-11T09:49:54.685Z,24.10
2023-08-11T09:52:23.229Z,23.90
2023-08-11T09:54:53.020Z,23.90
2023-08-11T09:57:24.430Z,24.40
2023-08-11T09:59:55.214Z,24.40
2023-08-11T10:02:26.771Z,24.60
2023-08-11T10:04:59.208Z,24.80
2023-08-11T10:07:35.529Z,24.90
2023-08-11T10:10:08.364Z,25.10
2023-08-11T10:12:41.880Z,25.30
2023-08-11T10:15:12.294Z,25.50
2023-08-11T10:17:41.392Z,25.50
2023-08-11T10:20:11.215Z,25.80
2023-08-11T10:22:39.862Z,25.80
2023-08-11T10:25:10.129Z,25.90
2023-08-11T10:27:42.113Z,25.90
2023-08-11T10:30:12.812Z,25.90
2023-08-11T10:32:41.191Z,26.00
2023-08-11T10:35:14.689Z,26.20
2023-08-11T10:37:43.330Z,26.50
2023-08-11T10:40:12.846Z,26.40
2023-08-11T10:42:42.626Z,26.50
2023-08-11T10:45:11.878Z,26.60
2023-08-11T10:47:40.600Z,26.60
2023-08-11T10:50:11.927Z,26.40
2023-08-11T10:52:40.281Z,26.60
2023-08-11T10:55:09.901Z,26.50
2023-08-11T10:57:38.186Z,26.70
2023-08-11T11:00:10.551Z,26.70
2023-08-11T11:02:39.051Z,26.80
2023-08-11T11:05:09.374Z,27.00
2023-08-11T11:07:39.871Z,26.90
2023-08-11T11:10:09.933Z,26.70
2023-08-11T11:12:38.206Z,26.70
2023-08-11T11:15:09.550Z,26.70
2023-08-11T11:17:37.844Z,26.70
2023-08-11T11:20:07.830Z,26.60
2023-08-11T11:22:38.677Z,26.50
2023-08-11T11:25:07.946Z,26.50
2023-08-11T11:27:43.244Z,26.90
2023-08-11T11:30:14.031Z,27.10
2023-08-11T11:32:43.572Z,27.30
2023-08-11T11:35:12.381Z,27.60
2023-08-11T11:37:42.154Z,27.90
2023-08-11T11:40:13.178Z,28.20
2023-08-11T11:42:41.376Z,28.30
2023-08-11T11:45:11.845Z,28.50
2023-08-11T11:47:42.618Z,28.30
2023-08-11T11:50:11.324Z,28.60
2023-08-11T11:52:41.756Z,28.80
2023-08-11T11:55:10.279Z,28.80
2023-08-11T11:57:39.630Z,29.00
2023-08-11T12:00:17.480Z,29.00
2023-08-11T12:02:47.852Z,29.10
2023-08-11T12:05:17.074Z,29.20
2023-08-11T12:07:45.430Z,29.20
2023-08-11T12:10:13.803Z,29.20
2023-08-11T12:12:42.004Z,29.20
2023-08-11T12:15:11.928Z,29.00
2023-08-11T12:17:40.338Z,29.00
2023-08-11T12:20:11.621Z,28.90
2023-08-11T12:22:40.318Z,28.70
2023-08-11T12:25:10.963Z,28.60
2023-08-11T12:27:40.508Z,28.50
2023-08-11T12:30:11.851Z,28.40
2023-08-11T12:32:40.262Z,28.30
2023-08-11T12:35:12.885Z,28.30
2023-08-11T12:37:41.274Z,28.40
2023-08-11T12:40:11.243Z,28.40
2023-08-11T12:42:39.569Z,28.40
2023-08-11T12:45:09.417Z,28.30
2023-08-11T12:47:37.839Z,28.40
2023-08-11T12:50:07.472Z,28.40
2023-08-11T12:52:37.624Z,28.30
2023-08-11T12:55:06.672Z,28.30
2023-08-11T12:57:35.437Z,28.20
2023-08-11T13:00:03.736Z,28.60
2023-08-11T13:02:32.522Z,28.90
2023-08-11T13:05:00.787Z,29.00
2023-08-11T13:07:29.049Z,29.20
2023-08-11T13:09:58.771Z,29.60
2023-08-11T13:12:27.027Z,29.70
2023-08-11T13:14:55.279Z,30.00
2023-08-11T13:17:23.426Z,30.10
2023-08-11T13:19:51.706Z,30.30
2023-08-11T13:22:19.952Z,30.40
2023-08-11T13:24:49.253Z,30.30
2023-08-11T13:27:18.909Z,30.20
2023-08-11T13:30:14.711Z,30.00
2023-08-11T13:32:43.655Z,29.80
2023-08-11T13:35:13.121Z,29.60
2023-08-11T13:37:41.387Z,29.50
2023-08-11T13:40:11.129Z,29.50
2023-08-11T13:42:43.068Z,29.60
2023-08-11T13:45:12.319Z,29.50
2023-08-11T13:47:40.730Z,29.40
2023-08-11T13:50:10.236Z,29.40
2023-08-11T13:52:38.365Z,29.50
2023-08-11T13:55:10.205Z,29.70
2023-08-11T13:57:40.408Z,30.10
2023-08-11T14:00:13.387Z,30.30
2023-08-11T14:02:42.301Z,30.40
2023-08-11T14:05:11.215Z,30.50
2023-08-11T14:07:39.381Z,30.50
2023-08-11T14:10:08.622Z,30.50
2023-08-11T14:12:36.741Z,30.70
2023-08-11T14:15:08.366Z,30.60
2023-08-11T14:17:36.459Z,30.50
2023-08-11T14:20:05.326Z,30.80
2023-08-11T14:22:33.722Z,30.60
2023-08-11T14:25:01.797Z,30.40
2023-08-11T14:27:29.866Z,30.40
2023-08-11T14:29:58.343Z,30.40
2023-08-11T14:32:27.900Z,30.40
2023-08-11T14:34:55.985Z,30.70
2023-08-11T14:37:24.081Z,30.70
2023-08-11T14:39:52.122Z,30.60
2023-08-11T14:42:20.221Z,30.50
2023-08-11T14:44:48.370Z,30.40
2023-08-11T14:47:16.775Z,30.50
2023-08-11T14:49:46.643Z,30.40
2023-08-11T14:52:15.453Z,30.20
2023-08-11T14:54:43.785Z,30.10
2023-08-11T14:57:14.077Z,30.00
2023-08-11T14:59:42.681Z,29.90
2023-08-11T15:02:11.907Z,29.90
2023-08-11T15:04:40.283Z,29.90
2023-08-11T15:07:09.893Z,29.90
2023-08-11T15:09:38.198Z,30.10
2023-08-11T15:12:08.405Z,30.00
2023-08-11T15:14:36.825Z,30.00
2023-08-11T15:17:05.140Z,30.00
2023-08-11T15:19:33.865Z,30.10
2023-08-11T15:22:02.053Z,30.00
2023-08-11T15:24:31.644Z,29.90
2023-08-11T15:26:59.781Z,29.90
2023-08-11T15:29:27.968Z,29.90
2023-08-11T15:31:56.068Z,30.00
2023-08-11T15:34:24.160Z,29.90
2023-08-11T15:36:52.311Z,29.80
2023-08-11T15:39:21.072Z,29.80
2023-08-11T15:41:50.620Z,29.70
2023-08-11T15:44:19.701Z,29.70
2023-08-11T15:46:49.786Z,29.60
2023-08-11T15:49:18.044Z,29.50
2023-08-11T15:51:46.292Z,29.50
2023-08-11T15:54:14.400Z,29.50
2023-08-11T15:56:42.480Z,29.50
2023-08-11T15:59:11.964Z,29.50
2023-08-11T16:01:41.942Z,29.40
2023-08-11T16:04:11.160Z,29.40
2023-08-11T16:06:39.325Z,29.40
2023-08-11T16:09:08.335Z,29.40
2023-08-11T16:11:36.512Z,29.40
2023-08-11T16:14:04.752Z,29.40
2023-08-11T16:16:34.255Z,29.30
2023-08-11T16:19:02.379Z,29.30
2023-08-11T16:21:30.619Z,29.30
2023-08-11T16:23:58.837Z,29.30
2023-08-11T16:26:27.035Z,29.20
2023-08-11T16:28:55.177Z,29.30
2023-08-11T16:31:23.446Z,29.30
2023-08-11T16:33:52.873Z,29.30
2023-08-11T16:36:21.427Z,29.30
2023-08-11T16:38:49.626Z,29.30
2023-08-11T16:41:18.376Z,29.30
2023-08-11T16:43:46.560Z,29.30
2023-08-11T16:46:16.897Z,29.20
2023-08-11T16:48:45.427Z,29.30
2023-08-11T16:51:15.374Z,29.20
2023-08-11T16:53:43.770Z,29.20
2023-08-11T16:56:11.945Z,29.30
2023-08-11T16:58:40.111Z,29.20
2023-08-11T17:01:08.265Z,29.20
2023-08-11T17:03:36.812Z,29.20
2023-08-11T17:06:05.267Z,29.20
2023-08-11T17:08:34.719Z,29.20
2023-08-11T17:11:04.033Z,29.20
2023-08-11T17:13:32.459Z,29.20
2023-08-11T17:16:00.703Z,29.20
2023-08-11T17:18:28.864Z,29.20
2023-08-11T17:20:56.961Z,29.20
2023-08-11T17:23:25.123Z,29.20
2023-08-11T17:25:55.334Z,29.10
2023-08-11T17:28:23.457Z,29.20
2023-08-11T17:30:51.756Z,29.10
2023-08-11T17:33:19.926Z,29.10
2023-08-11T17:35:48.084Z,29.10
2023-08-11T17:38:16.321Z,29.00
2023-08-11T17:40:44.490Z,29.00
2023-08-11T17:43:14.067Z,29.00
2023-08-11T17:45:42.499Z,29.00
2023-08-11T17:48:10.926Z,29.00
2023-08-11T17:50:39.122Z,29.00
2023-08-11T17:53:07.542Z,29.00
2023-08-11T17:55:36.098Z,28.90
2023-08-11T17:58:04.536Z,28.90
2023-08-11T18:00:34.122Z,28.90
2023-08-11T18:03:02.381Z,28.80
2023-08-11T18:05:30.694Z,28.80
2023-08-11T18:07:58.795Z,28.80
2023-08-11T18:10:26.969Z,28.70
2023-08-11T18:12:55.072Z,28.70
2023-08-11T18:15:23.936Z,28.70
2023-08-11T18:17:54.794Z,28.60
2023-08-11T18:20:23.311Z,28.50
2023-08-11T18:22:51.474Z,28.40
2023-08-11T18:25:19.921Z,28.40
2023-08-11T18:27:48.325Z,28.30
2023-08-11T18:30:16.701Z,28.30
2023-08-11T18:32:46.321Z,28.20
2023-08-11T18:35:16.044Z,28.10
2023-08-11T18:37:44.196Z,28.00
2023-08-11T18:40:13.065Z,28.00
2023-08-11T18:42:41.301Z,27.90
2023-08-11T18:45:10.360Z,27.90
2023-08-11T18:47:38.829Z,27.80
2023-08-11T18:50:08.252Z,27.80
2023-08-11T18:52:37.934Z,27.70
2023-08-11T18:55:06.680Z,27.60
2023-08-11T18:57:35.675Z,27.50
2023-08-11T19:00:04.445Z,27.50
2023-08-11T19:02:32.738Z,27.40
2023-08-11T19:05:01.024Z,27.30
2023-08-11T19:07:29.429Z,27.30
2023-08-11T19:09:58.963Z,27.20
2023-08-11T19:12:27.181Z,27.10
2023-08-11T19:14:55.608Z,27.10
2023-08-11T19:17:23.784Z,27.00
2023-08-11T19:19:52.206Z,26.90
2023-08-11T19:22:20.617Z,26.80
2023-08-11T19:24:48.753Z,26.70
2023-08-11T19:27:18.493Z,26.70
2023-08-11T19:29:46.682Z,26.60
2023-08-11T19:32:14.850Z,26.50
2023-08-11T19:34:43.045Z,26.50
2023-08-11T19:37:12.133Z,26.40
2023-08-11T19:39:40.271Z,26.30
2023-08-11T19:42:08.892Z,26.20
2023-08-11T19:44:41.288Z,26.20
2023-08-11T19:47:09.589Z,26.10
2023-08-11T19:49:37.774Z,26.00
2023-08-11T19:52:06.681Z,26.00
2023-08-11T19:54:34.890Z,25.90
2023-08-11T19:57:03.127Z,25.80
2023-08-11T19:59:31.342Z,25.70
2023-08-11T20:02:00.819Z,25.70
2023-08-11T20:04:30.381Z,25.60
2023-08-11T20:06:58.472Z,25.50
2023-08-11T20:09:28.254Z,25.40
2023-08-11T20:11:57.668Z,25.40
2023-08-11T20:14:26.075Z,25.40
2023-08-11T20:16:54.540Z,25.30
2023-08-11T20:19:25.215Z,25.30
2023-08-11T20:21:53.642Z,25.30
2023-08-11T20:24:23.422Z,25.20
2023-08-11T20:26:57.132Z,25.10
2023-08-11T20:29:25.696Z,25.10
2023-08-11T20:31:57.087Z,25.00
2023-08-11T20:34:27.691Z,25.00
2023-08-11T20:36:56.777Z,25.00
2023-08-11T20:39:26.385Z,24.90
2023-08-11T20:41:55.972Z,24.90
2023-08-11T20:44:24.870Z,24.80
2023-08-11T20:46:54.574Z,24.80
2023-08-11T20:49:23.200Z,24.80
2023-08-11T20:51:54.946Z,24.70
2023-08-11T20:54:23.424Z,24.70
2023-08-11T20:56:51.755Z,24.70
2023-08-11T20:59:20.306Z,24.70
2023-08-11T21:01:48.547Z,24.60
2023-08-11T21:04:16.804Z,24.60
2023-08-11T21:06:45.004Z,24.50
2023-08-11T21:09:14.584Z,24.50
2023-08-11T21:11:42.768Z,24.40
2023-08-11T21:14:11.733Z,24.40
2023-08-11T21:16:41.079Z,24.30
2023-08-11T21:19:09.550Z,24.40
2023-08-11T21:21:37.731Z,24.30
2023-08-11T21:24:06.537Z,24.30
2023-08-11T21:26:36.135Z,24.20
2023-08-11T21:29:04.335Z,24.20
2023-08-11T21:31:32.488Z,24.10
2023-08-11T21:34:02.761Z,24.10
2023-08-11T21:36:30.929Z,24.10
2023-08-11T21:38:59.900Z,24.10
2023-08-11T21:41:28.114Z,24.00
2023-08-11T21:43:57.638Z,24.00
2023-08-11T21:46:26.176Z,24.00
2023-08-11T21:48:54.395Z,23.90
2023-08-11T21:51:22.611Z,23.90
2023-08-11T21:53:50.921Z,23.90
2023-08-11T21:56:19.140Z,23.80
2023-08-11T21:58:47.378Z,23.80
2023-08-11T22:01:17.046Z,23.80
2023-08-11T22:03:45.517Z,23.70
2023-08-11T22:06:15.057Z,23.70
2023-08-11T22:08:43.530Z,23.60
2023-08-11T22:11:26.029Z,23.60
2023-08-11T22:14:00.215Z,23.50
2023-08-11T22:16:29.936Z,23.40
2023-08-11T22:18:58.498Z,23.40
2023-08-11T22:21:26.669Z,23.40
2023-08-11T22:23:54.926Z,23.40
2023-08-11T22:26:23.200Z,23.40
2023-08-11T22:28:51.325Z,23.30
2023-08-11T22:31:19.624Z,23.30
2023-08-11T22:33:49.215Z,23.30
2023-08-11T22:36:17.426Z,23.20
2023-08-11T22:38:45.727Z,23.20
2023-08-11T22:41:14.068Z,23.20
2023-08-11T22:43:42.539Z,23.10
2023-08-11T22:46:10.764Z,23.00
2023-08-11T22:48:39.167Z,22.90
2023-08-11T22:51:09.021Z,22.80
2023-08-11T22:53:37.269Z,22.80
2023-08-11T22:56:05.773Z,22.80
2023-08-11T22:58:33.990Z,22.90
2023-08-11T23:01:02.708Z,22.90
2023-08-11T23:03:30.901Z,23.00
2023-08-11T23:05:59.044Z,23.00
2023-08-11T23:08:28.687Z,23.00
2023-08-11T23:10:56.943Z,22.90
2023-08-11T23:13:25.218Z,22.90
2023-08-11T23:15:53.391Z,22.90
2023-08-11T23:18:21.864Z,22.90
2023-08-11T23:20:50.037Z,22.80
2023-08-11T23:23:18.275Z,22.80
2023-08-11T23:25:48.072Z,22.80
2023-08-11T23:28:16.202Z,22.80
2023-08-11T23:30:44.446Z,22.80
2023-08-11T23:33:13.318Z,22.70
2023-08-11T23:35:41.492Z,22.70
2023-08-11T23:38:09.677Z,22.70
2023-08-11T23:40:38.312Z,22.70
2023-08-11T23:43:07.987Z,22.70
2023-08-11T23:45:36.455Z,22.60
2023-08-11T23:48:06.184Z,22.60
2023-08-11T23:50:34.557Z,22.50
2023-08-11T23:53:03.222Z,22.50
2023-08-11T23:55:31.497Z,22.50
2023-08-11T23:57:59.712Z,22.60
